Time;durP1;ratioP1;P1;durP2;ratioP2;P2;SDS_P1;SDS_P2;PMS_P1;PMS_P2;Temp;Humidity;BMP_temperature;BMP_pressure;BME280_temperature;BME280_humidity;BME280_pressure;Samples;Min_cycle;Max_cycle;Signal;HPM_P1;HPM_P2
2023/06/30 00:00:26;;;;;;;13.38;6.07;;;15.10;99.90;;;;;;4984704;28;20050;-71
2023/06/30 00:02:51;;;;;;;8.75;5.00;;;15.10;99.90;;;;;;4982182;28;20389;-71
2023/06/30 00:05:18;;;;;;;12.18;7.10;;;15.00;99.90;;;;;;4991864;28;20879;-71
2023/06/30 00:07:44;;;;;;;10.07;5.32;;;15.00;99.90;;;;;;5003421;28;20113;-71
2023/06/30 00:10:10;;;;;;;9.68;5.95;;;14.90;99.90;;;;;;4987223;28;20132;-71
2023/06/30 00:12:39;;;;;;;11.65;6.53;;;14.80;99.90;;;;;;4993366;28;20034;-71
2023/06/30 00:15:05;;;;;;;16.63;6.32;;;14.80;99.90;;;;;;4985438;28;20042;-71
2023/06/30 00:17:31;;;;;;;10.57;5.85;;;14.70;99.90;;;;;;4969698;28;20050;-70
2023/06/30 00:19:59;;;;;;;11.68;4.90;;;14.70;99.90;;;;;;5009707;28;20041;-72
2023/06/30 00:22:25;;;;;;;11.55;5.00;;;14.70;99.90;;;;;;4989765;28;20050;-71
2023/06/30 00:24:55;;;;;;;10.80;5.40;;;14.60;99.90;;;;;;4986052;28;20049;-71
2023/06/30 00:27:22;;;;;;;10.30;5.28;;;14.60;99.90;;;;;;4979981;28;20499;-71
2023/06/30 00:29:47;;;;;;;10.70;5.22;;;14.60;99.90;;;;;;4980355;28;20085;-71
2023/06/30 00:32:13;;;;;;;10.18;5.00;;;14.50;99.90;;;;;;4974694;28;20273;-71
2023/06/30 00:34:40;;;;;;;11.20;5.40;;;14.50;99.90;;;;;;4981621;28;20681;-71
2023/06/30 00:37:09;;;;;;;10.52;4.72;;;14.50;99.90;;;;;;4983660;28;20129;-72
2023/06/30 00:39:34;;;;;;;8.15;4.60;;;14.50;99.90;;;;;;4977281;28;20046;-72
2023/06/30 00:42:00;;;;;;;10.45;4.82;;;14.50;99.90;;;;;;5004399;28;20041;-74
2023/06/30 00:44:26;;;;;;;9.25;5.28;;;14.40;99.90;;;;;;4988344;28;20044;-72
2023/06/30 00:46:52;;;;;;;11.18;4.95;;;14.30;99.90;;;;;;4988545;28;21914;-72
2023/06/30 00:49:18;;;;;;;9.77;4.70;;;14.30;99.90;;;;;;4988053;28;20104;-71
2023/06/30 00:51:44;;;;;;;16.38;7.40;;;14.30;99.90;;;;;;4970631;28;20041;-72
2023/06/30 00:54:10;;;;;;;9.13;4.95;;;14.20;99.90;;;;;;4976825;28;20042;-71
2023/06/30 00:56:39;;;;;;;14.60;7.25;;;14.20;99.90;;;;;;4942671;28;20571;-71
2023/06/30 00:59:07;;;;;;;14.73;6.57;;;14.10;99.90;;;;;;4980585;28;20077;-71
2023/06/30 01:01:40;;;;;;;9.63;4.75;;;14.10;99.90;;;;;;4964400;28;20050;-72
2023/06/30 01:04:43;;;;;;;9.98;5.35;;;14.10;99.90;;;;;;4978416;28;20094;-72
2023/06/30 01:07:25;;;;;;;9.65;5.63;;;14.00;99.90;;;;;;4944652;28;20053;-75
2023/06/30 01:10:02;;;;;;;9.93;4.93;;;14.00;99.90;;;;;;4979780;28;20050;-74
2023/06/30 01:12:28;;;;;;;9.20;4.93;;;14.00;99.90;;;;;;4982100;28;20058;-75
2023/06/30 01:14:55;;;;;;;8.50;4.57;;;13.90;99.90;;;;;;4979115;28;20046;-74
2023/06/30 01:17:24;;;;;;;11.88;5.00;;;13.90;99.90;;;;;;4966436;28;20125;-75
2023/06/30 01:19:54;;;;;;;13.70;5.93;;;13.90;99.90;;;;;;4980146;28;20060;-75
2023/06/30 01:22:42;;;;;;;9.98;4.82;;;13.90;99.90;;;;;;4961755;28;20517;-75
2023/06/30 01:25:19;;;;;;;9.38;5.10;;;13.80;99.90;;;;;;4981143;28;20046;-75
2023/06/30 01:27:45;;;;;;;9.05;4.47;;;13.80;99.90;;;;;;4960116;28;20037;-75
2023/06/30 01:30:11;;;;;;;11.25;5.40;;;13.80;99.90;;;;;;4967937;28;20054;-76
2023/06/30 01:32:37;;;;;;;10.40;6.10;;;13.80;99.90;;;;;;4982840;28;20485;-73
2023/06/30 01:35:04;;;;;;;10.90;5.40;;;13.70;99.90;;;;;;4983708;28;20068;-73
2023/06/30 01:37:30;;;;;;;9.82;4.70;;;13.70;99.90;;;;;;4960933;28;20038;-72
2023/06/30 01:39:55;;;;;;;10.05;4.75;;;13.70;99.90;;;;;;4981500;28;20041;-72
2023/06/30 01:42:21;;;;;;;9.90;5.15;;;13.60;99.90;;;;;;4982679;28;20420;-72
2023/06/30 01:44:49;;;;;;;8.88;4.47;;;13.60;99.90;;;;;;4979655;28;20065;-72
2023/06/30 01:47:15;;;;;;;11.25;4.88;;;13.60;99.90;;;;;;4978876;28;20041;-73
2023/06/30 01:49:42;;;;;;;11.77;5.07;;;13.50;99.90;;;;;;4983206;28;20052;-73
2023/06/30 01:52:08;;;;;;;8.32;4.95;;;13.50;99.90;;;;;;4963465;28;20081;-73
2023/06/30 01:54:34;;;;;;;11.02;5.25;;;13.50;99.90;;;;;;4981352;28;20555;-73
2023/06/30 01:57:02;;;;;;;10.43;4.82;;;13.50;99.90;;;;;;4983355;28;20112;-72
2023/06/30 01:59:28;;;;;;;12.40;5.53;;;13.40;99.90;;;;;;4965700;28;20054;-73
2023/06/30 02:01:54;;;;;;;11.57;5.15;;;13.40;99.90;;;;;;4984230;28;20562;-72
2023/06/30 02:04:20;;;;;;;11.27;5.13;;;13.40;99.90;;;;;;4971158;28;20083;-74
2023/06/30 02:06:45;;;;;;;11.15;5.40;;;13.40;99.90;;;;;;4974351;28;20052;-73
2023/06/30 02:09:12;;;;;;;11.48;6.07;;;13.30;99.90;;;;;;4978739;28;20060;-73
2023/06/30 02:11:39;;;;;;;9.32;5.43;;;13.30;99.90;;;;;;5005693;28;20038;-75
2023/06/30 02:14:04;;;;;;;9.60;4.78;;;13.30;99.90;;;;;;4969567;28;20038;-73
2023/06/30 02:16:31;;;;;;;11.93;7.00;;;13.20;99.90;;;;;;4973098;28;20053;-72
2023/06/30 02:18:56;;;;;;;12.77;6.45;;;13.20;99.90;;;;;;4991655;28;20857;-72
2023/06/30 02:21:24;;;;;;;9.10;5.00;;;13.10;99.90;;;;;;4977038;28;20598;-72
2023/06/30 02:23:49;;;;;;;10.32;6.82;;;13.10;99.90;;;;;;4977004;28;20133;-72
2023/06/30 02:26:16;;;;;;;11.70;5.70;;;13.00;99.90;;;;;;4975922;28;20105;-72
2023/06/30 02:28:41;;;;;;;7.95;5.13;;;13.00;99.90;;;;;;5006313;28;20108;-72
2023/06/30 02:31:07;;;;;;;9.90;5.30;;;13.00;99.90;;;;;;4992442;28;20058;-72
2023/06/30 02:33:33;;;;;;;10.40;4.80;;;12.90;99.90;;;;;;4967919;28;20137;-72
2023/06/30 02:35:59;;;;;;;9.40;4.75;;;12.90;99.90;;;;;;4985665;28;20046;-72
2023/06/30 02:38:24;;;;;;;9.55;4.90;;;12.80;99.90;;;;;;4986088;28;20096;-72
2023/06/30 02:40:50;;;;;;;9.15;4.70;;;12.80;99.90;;;;;;4992038;28;20519;-72
2023/06/30 02:43:16;;;;;;;9.55;5.43;;;12.80;99.90;;;;;;4991105;28;20052;-72
2023/06/30 02:45:42;;;;;;;10.40;4.90;;;12.80;99.90;;;;;;4989394;28;20500;-71
2023/06/30 02:48:07;;;;;;;8.50;4.47;;;12.70;99.90;;;;;;4990267;28;20039;-72
2023/06/30 02:50:33;;;;;;;11.60;4.85;;;12.70;99.90;;;;;;4981711;28;20053;-72
2023/06/30 02:53:00;;;;;;;9.70;4.85;;;12.70;99.90;;;;;;4989016;28;20049;-72
2023/06/30 02:55:25;;;;;;;8.48;4.47;;;12.70;99.90;;;;;;4988234;28;20058;-72
2023/06/30 02:57:52;;;;;;;9.55;4.47;;;12.70;99.90;;;;;;4990534;28;20416;-72
2023/06/30 03:00:18;;;;;;;12.88;4.88;;;12.60;99.90;;;;;;4984137;28;20061;-73
2023/06/30 03:02:44;;;;;;;8.95;5.22;;;12.60;99.90;;;;;;4980862;28;20045;-72
2023/06/30 03:05:10;;;;;;;11.32;5.43;;;12.50;99.90;;;;;;4985449;28;20119;-73
2023/06/30 03:07:35;;;;;;;9.18;4.95;;;12.60;99.90;;;;;;5004286;28;20085;-72
2023/06/30 03:10:02;;;;;;;7.40;4.18;;;12.50;99.90;;;;;;4972227;28;20430;-72
2023/06/30 03:12:28;;;;;;;8.13;4.47;;;12.50;99.90;;;;;;4985652;28;20113;-72
2023/06/30 03:14:53;;;;;;;7.05;4.13;;;12.40;99.90;;;;;;4985819;28;20050;-72
2023/06/30 03:17:19;;;;;;;9.82;4.38;;;12.40;99.90;;;;;;4980055;28;20034;-72
2023/06/30 03:19:45;;;;;;;7.70;4.68;;;12.40;99.90;;;;;;4992230;28;20614;-72
2023/06/30 03:22:11;;;;;;;10.27;5.85;;;12.40;99.90;;;;;;4981615;28;20691;-72
2023/06/30 03:24:43;;;;;;;10.52;5.38;;;12.30;99.90;;;;;;4976284;28;20030;-72
2023/06/30 03:27:11;;;;;;;11.38;5.10;;;12.30;99.90;;;;;;4987633;28;20044;-72
2023/06/30 03:29:37;;;;;;;7.82;4.40;;;12.30;99.90;;;;;;4982975;28;20054;-71
2023/06/30 03:32:03;;;;;;;9.95;4.57;;;12.20;99.90;;;;;;4978797;28;20092;-71
2023/06/30 03:34:29;;;;;;;7.15;3.83;;;12.20;99.90;;;;;;4971007;28;20057;-71
2023/06/30 03:36:55;;;;;;;8.73;4.55;;;12.20;99.90;;;;;;4972911;28;20078;-71
2023/06/30 03:39:21;;;;;;;10.10;4.97;;;12.20;99.90;;;;;;5002425;28;20042;-72
2023/06/30 03:41:47;;;;;;;10.27;5.47;;;12.20;99.90;;;;;;4987566;28;20041;-71
2023/06/30 03:44:13;;;;;;;13.93;5.68;;;12.20;99.90;;;;;;5005505;28;20057;-72
2023/06/30 03:46:40;;;;;;;11.88;5.72;;;12.20;99.90;;;;;;4987960;28;20169;-71
2023/06/30 03:49:09;;;;;;;10.43;5.55;;;12.20;99.90;;;;;;4989898;28;20045;-71
2023/06/30 03:51:35;;;;;;;9.60;4.50;;;12.20;99.90;;;;;;4975365;28;20455;-71
2023/06/30 03:54:00;;;;;;;9.90;4.80;;;12.20;99.90;;;;;;4986534;28;20050;-71
2023/06/30 03:56:26;;;;;;;8.52;4.43;;;12.20;99.90;;;;;;4983608;28;20556;-71
2023/06/30 03:58:52;;;;;;;8.57;4.18;;;12.20;99.90;;;;;;4989533;28;20085;-71
2023/06/30 04:01:18;;;;;;;10.38;5.63;;;12.20;99.90;;;;;;4971549;28;20567;-71
2023/06/30 04:03:44;;;;;;;11.65;6.35;;;12.20;99.90;;;;;;4967461;28;20061;-71
2023/06/30 04:06:10;;;;;;;9.13;5.55;;;12.10;99.90;;;;;;4982843;28;20049;-71
2023/06/30 04:08:35;;;;;;;14.20;6.22;;;12.10;99.90;;;;;;4972611;28;20141;-71
2023/06/30 04:11:02;;;;;;;8.70;4.57;;;12.10;99.90;;;;;;4973410;28;20046;-71
2023/06/30 04:13:28;;;;;;;10.05;6.55;;;12.10;99.90;;;;;;4981219;28;20056;-71
2023/06/30 04:15:54;;;;;;;10.68;5.70;;;12.00;99.90;;;;;;4982728;28;20050;-71
2023/06/30 04:18:20;;;;;;;10.63;5.72;;;12.00;99.90;;;;;;4967458;28;20062;-71
2023/06/30 04:20:47;;;;;;;10.82;6.07;;;11.90;99.90;;;;;;4990056;28;20042;-71
2023/06/30 04:23:16;;;;;;;8.65;5.18;;;11.90;99.90;;;;;;4970167;28;20060;-72
2023/06/30 04:25:42;;;;;;;13.02;6.70;;;11.90;99.90;;;;;;4987792;28;20555;-71
2023/06/30 04:28:07;;;;;;;10.25;6.10;;;11.90;99.90;;;;;;4986781;28;20049;-71
2023/06/30 04:30:33;;;;;;;7.63;4.75;;;11.90;99.90;;;;;;4983887;28;20050;-71
2023/06/30 04:32:59;;;;;;;10.10;4.90;;;11.90;99.90;;;;;;4987300;28;20846;-71
2023/06/30 04:35:25;;;;;;;9.68;4.80;;;11.90;99.90;;;;;;4985376;28;20674;-72
2023/06/30 04:37:52;;;;;;;8.85;4.72;;;12.00;99.90;;;;;;4983525;28;20081;-72
2023/06/30 04:40:17;;;;;;;7.53;5.15;;;12.00;99.90;;;;;;4999882;28;20123;-72
2023/06/30 04:42:44;;;;;;;10.32;5.20;;;12.10;99.90;;;;;;4983636;28;20050;-72
2023/06/30 04:45:13;;;;;;;9.45;4.90;;;12.10;99.90;;;;;;4972274;28;20114;-72
2023/06/30 04:47:39;;;;;;;9.30;5.40;;;12.20;99.90;;;;;;4989521;28;20069;-72
2023/06/30 04:50:05;;;;;;;10.68;5.03;;;12.30;99.90;;;;;;4985935;28;20080;-72
2023/06/30 04:52:31;;;;;;;10.65;5.10;;;12.30;99.90;;;;;;4989702;28;20054;-72
2023/06/30 04:54:57;;;;;;;10.82;5.35;;;12.40;99.90;;;;;;4969445;28;21697;-72
2023/06/30 04:57:23;;;;;;;9.55;5.70;;;12.40;99.90;;;;;;4972353;28;20893;-71
2023/06/30 04:59:52;;;;;;;10.40;5.03;;;12.50;99.90;;;;;;4990376;28;20046;-71
2023/06/30 05:02:18;;;;;;;11.10;5.35;;;12.50;99.90;;;;;;4967119;28;20053;-71
2023/06/30 05:04:44;;;;;;;9.15;5.35;;;12.60;99.90;;;;;;4977426;28;20041;-71
2023/06/30 05:07:10;;;;;;;10.32;5.78;;;12.70;99.90;;;;;;4985911;28;20124;-72
2023/06/30 05:09:39;;;;;;;9.52;5.40;;;12.70;99.90;;;;;;4977521;28;20104;-72
2023/06/30 05:12:05;;;;;;;14.55;6.88;;;12.80;99.90;;;;;;4975076;28;20052;-72
2023/06/30 05:14:34;;;;;;;13.20;5.78;;;12.80;99.90;;;;;;4986865;28;20049;-74
2023/06/30 05:17:00;;;;;;;8.70;5.05;;;12.90;99.90;;;;;;4966630;28;20405;-73
2023/06/30 05:19:26;;;;;;;11.82;6.00;;;12.90;99.90;;;;;;4983308;28;20068;-73
2023/06/30 05:21:52;;;;;;;12.02;6.25;;;13.00;99.90;;;;;;4967245;28;20042;-74
2023/06/30 05:24:18;;;;;;;12.82;5.90;;;13.00;99.90;;;;;;4986174;28;20058;-74
2023/06/30 05:26:44;;;;;;;10.88;5.63;;;13.10;99.90;;;;;;4966443;28;20041;-74
2023/06/30 05:29:10;;;;;;;13.05;6.60;;;13.20;99.90;;;;;;4974758;28;20516;-74
2023/06/30 05:31:36;;;;;;;12.05;6.10;;;13.20;99.90;;;;;;4986980;28;20877;-74
2023/06/30 05:34:02;;;;;;;11.80;5.72;;;13.40;99.90;;;;;;4983650;28;20512;-74
2023/06/30 05:36:30;;;;;;;13.48;6.05;;;13.40;99.90;;;;;;4970978;28;20052;-74
2023/06/30 05:38:57;;;;;;;8.90;4.78;;;13.50;99.90;;;;;;4984680;28;20165;-74
2023/06/30 05:41:22;;;;;;;10.60;6.07;;;13.60;99.90;;;;;;4970547;28;20148;-74
2023/06/30 05:43:48;;;;;;;11.18;5.90;;;13.60;99.90;;;;;;4970644;28;20046;-74
2023/06/30 05:46:14;;;;;;;7.55;5.22;;;13.80;99.90;;;;;;4988470;28;20045;-75
2023/06/30 05:48:40;;;;;;;11.38;5.25;;;13.90;99.90;;;;;;4967602;28;20188;-75
2023/06/30 05:51:05;;;;;;;7.60;4.70;;;14.00;99.90;;;;;;4981754;28;20111;-75
2023/06/30 05:53:31;;;;;;;10.18;5.00;;;14.10;99.90;;;;;;4983703;28;20592;-75
2023/06/30 05:55:57;;;;;;;9.65;5.18;;;14.30;99.90;;;;;;4972296;28;20372;-75
2023/06/30 05:58:26;;;;;;;8.55;4.97;;;14.40;99.90;;;;;;4967691;28;20060;-74
2023/06/30 06:00:52;;;;;;;8.43;4.22;;;14.60;99.90;;;;;;4992731;28;20515;-76
2023/06/30 06:03:18;;;;;;;7.30;4.60;;;14.70;99.90;;;;;;4970598;28;20048;-74
2023/06/30 06:05:43;;;;;;;10.90;4.88;;;14.80;99.90;;;;;;5003991;28;20334;-72
2023/06/30 06:08:09;;;;;;;11.73;4.50;;;14.80;99.90;;;;;;4987943;28;20529;-71
2023/06/30 06:10:46;;;;;;;9.48;4.32;;;14.90;99.90;;;;;;4980427;28;20054;-71
2023/06/30 06:13:12;;;;;;;8.27;4.93;;;14.90;99.90;;;;;;4988749;28;20049;-72
2023/06/30 06:15:37;;;;;;;7.93;4.10;;;15.00;99.90;;;;;;4968115;28;20050;-72
2023/06/30 06:18:03;;;;;;;8.27;4.45;;;15.00;99.90;;;;;;4984149;28;20508;-72
2023/06/30 06:20:29;;;;;;;10.23;4.38;;;15.10;99.90;;;;;;4983423;28;20046;-71
2023/06/30 06:22:54;;;;;;;10.07;4.05;;;15.20;99.90;;;;;;4984952;28;20034;-72
2023/06/30 06:25:20;;;;;;;9.13;3.80;;;15.30;99.90;;;;;;4982896;28;20372;-72
2023/06/30 06:27:46;;;;;;;11.23;4.25;;;15.40;99.90;;;;;;4983948;28;20057;-71
2023/06/30 06:30:12;;;;;;;10.05;4.25;;;15.40;99.90;;;;;;4983709;28;20109;-72
2023/06/30 06:32:38;;;;;;;7.82;3.67;;;15.60;99.90;;;;;;4986870;28;20037;-72
2023/06/30 06:35:04;;;;;;;9.10;3.25;;;15.70;99.90;;;;;;4981705;28;20721;-72
2023/06/30 06:37:29;;;;;;;5.80;2.70;;;15.80;99.90;;;;;;4980122;28;20254;-71
2023/06/30 06:39:56;;;;;;;6.53;2.50;;;15.90;99.90;;;;;;4985227;28;20088;-71
2023/06/30 06:42:22;;;;;;;8.35;3.13;;;16.00;99.90;;;;;;4984100;28;20713;-71
2023/06/30 06:44:47;;;;;;;6.97;2.83;;;16.10;99.90;;;;;;4967670;28;20073;-71
2023/06/30 06:47:51;;;;;;;6.93;2.47;;;16.30;99.90;;;;;;4982472;28;20061;-71
2023/06/30 06:50:16;;;;;;;10.23;2.50;;;16.40;99.90;;;;;;4981245;28;20258;-71
2023/06/30 06:52:42;;;;;;;8.30;2.97;;;16.60;99.90;;;;;;4989465;28;20048;-71
2023/06/30 06:55:08;;;;;;;6.13;2.05;;;16.70;99.90;;;;;;4971112;28;20042;-71
2023/06/30 06:57:34;;;;;;;6.00;2.67;;;16.90;99.90;;;;;;4982856;28;20049;-71
2023/06/30 06:59:59;;;;;;;7.63;2.30;;;16.90;99.90;;;;;;4962843;28;20051;-72
2023/06/30 07:02:25;;;;;;;7.80;2.15;;;17.00;99.90;;;;;;4964430;28;20058;-72
2023/06/30 07:04:51;;;;;;;8.90;2.75;;;17.10;99.90;;;;;;4949056;28;20039;-72
2023/06/30 07:07:17;;;;;;;5.72;2.08;;;17.10;99.90;;;;;;4967157;28;20043;-71
2023/06/30 07:09:42;;;;;;;6.85;2.30;;;17.20;99.90;;;;;;4963939;28;20372;-72
2023/06/30 07:12:08;;;;;;;4.60;1.92;;;17.20;99.90;;;;;;4950638;28;20050;-71
2023/06/30 07:14:35;;;;;;;8.05;2.50;;;17.30;99.90;;;;;;4949708;28;20490;-71
2023/06/30 07:17:01;;;;;;;8.30;2.63;;;17.40;99.90;;;;;;4965318;28;20139;-72
2023/06/30 07:19:27;;;;;;;9.73;2.30;;;17.50;99.90;;;;;;4963582;28;20137;-72
2023/06/30 07:21:53;;;;;;;6.57;2.40;;;17.50;99.90;;;;;;4964369;28;20047;-72
2023/06/30 07:24:19;;;;;;;4.68;1.77;;;17.50;99.90;;;;;;4965653;28;20466;-72
2023/06/30 07:26:44;;;;;;;6.10;2.03;;;17.60;99.90;;;;;;4949648;28;20046;-71
2023/06/30 07:29:10;;;;;;;5.40;2.65;;;17.70;99.90;;;;;;4951325;28;20047;-72
2023/06/30 07:31:36;;;;;;;5.18;1.95;;;17.80;99.90;;;;;;4950331;28;20482;-72
2023/06/30 07:34:02;;;;;;;7.18;2.55;;;17.80;99.90;;;;;;4947385;28;20042;-71
2023/06/30 07:36:28;;;;;;;6.05;2.33;;;17.90;99.90;;;;;;4982752;28;20058;-71
2023/06/30 07:38:53;;;;;;;8.77;2.38;;;18.00;99.90;;;;;;4948234;28;20053;-71
2023/06/30 07:41:19;;;;;;;8.02;2.08;;;18.00;99.90;;;;;;4958302;28;20042;-71
2023/06/30 07:43:45;;;;;;;5.65;1.92;;;18.10;99.90;;;;;;4951667;28;20034;-71
2023/06/30 07:46:11;;;;;;;8.68;1.90;;;18.20;99.90;;;;;;4961050;28;20050;-71
2023/06/30 07:48:37;;;;;;;5.65;2.22;;;18.30;99.90;;;;;;4950540;28;20092;-71
2023/06/30 07:51:02;;;;;;;5.00;1.67;;;18.20;99.90;;;;;;4960519;28;20039;-71
2023/06/30 07:53:28;;;;;;;3.42;1.15;;;18.30;99.90;;;;;;4950024;28;20180;-71
2023/06/30 07:55:54;;;;;;;7.70;1.70;;;18.40;99.90;;;;;;4964638;28;20565;-70
2023/06/30 07:58:23;;;;;;;6.13;1.60;;;18.50;99.90;;;;;;4963181;28;20109;-71
2023/06/30 08:00:49;;;;;;;4.78;1.52;;;18.60;99.90;;;;;;4981759;28;20038;-71
2023/06/30 08:03:15;;;;;;;5.82;1.60;;;18.60;99.90;;;;;;4964343;28;20137;-71
2023/06/30 08:05:41;;;;;;;6.82;2.00;;;18.80;99.90;;;;;;4966889;28;20539;-71
2023/06/30 08:08:09;;;;;;;4.55;1.70;;;19.00;99.90;;;;;;4962963;28;20057;-71
2023/06/30 08:10:35;;;;;;;4.60;1.58;;;19.00;99.90;;;;;;4949940;28;20137;-71
2023/06/30 08:13:01;;;;;;;4.82;1.67;;;19.00;99.90;;;;;;4945862;28;20506;-71
2023/06/30 08:15:27;;;;;;;6.53;1.55;;;18.90;99.90;;;;;;4962567;28;20081;-71
2023/06/30 08:17:52;;;;;;;4.32;1.55;;;18.90;99.90;;;;;;4963251;28;20414;-71
2023/06/30 08:20:18;;;;;;;4.05;1.50;;;19.00;99.90;;;;;;4963430;28;20417;-71
2023/06/30 08:22:44;;;;;;;5.45;1.48;;;19.20;99.90;;;;;;4946967;28;20114;-71
2023/06/30 08:25:10;;;;;;;4.13;1.50;;;19.30;99.90;;;;;;4959317;28;21154;-71
2023/06/30 08:27:35;;;;;;;4.47;1.45;;;19.40;99.90;;;;;;4949344;28;20525;-71
2023/06/30 08:30:01;;;;;;;3.80;1.27;;;19.50;99.90;;;;;;4947516;28;20117;-71
2023/06/30 08:32:27;;;;;;;5.60;1.35;;;19.60;99.90;;;;;;4962406;28;20062;-71
2023/06/30 08:34:53;;;;;;;5.78;1.45;;;19.80;99.90;;;;;;4947425;28;20508;-71
2023/06/30 08:37:18;;;;;;;3.95;1.10;;;19.80;99.90;;;;;;4945369;28;20118;-71
2023/06/30 08:39:44;;;;;;;3.80;1.23;;;19.90;99.90;;;;;;4963482;28;20039;-71
2023/06/30 08:42:14;;;;;;;4.13;1.35;;;20.00;99.90;;;;;;4964366;28;20073;-71
2023/06/30 08:44:43;;;;;;;3.85;1.20;;;20.20;99.90;;;;;;4950579;28;20197;-71
2023/06/30 08:47:13;;;;;;;4.15;1.10;;;20.30;99.90;;;;;;4946249;28;20045;-71
2023/06/30 08:49:41;;;;;;;4.15;1.60;;;20.20;99.90;;;;;;4965904;28;20043;-71
2023/06/30 08:52:08;;;;;;;4.50;1.20;;;20.10;99.90;;;;;;4960656;28;20499;-71
2023/06/30 08:54:34;;;;;;;4.00;1.40;;;20.10;99.90;;;;;;4964392;28;20054;-71
2023/06/30 08:57:01;;;;;;;5.30;1.50;;;20.20;99.90;;;;;;4960383;28;20777;-71
2023/06/30 08:59:27;;;;;;;4.88;1.50;;;20.30;99.90;;;;;;4966418;28;20061;-71
2023/06/30 09:01:56;;;;;;;3.65;1.40;;;20.20;99.90;;;;;;4987362;28;20049;-72
2023/06/30 09:04:23;;;;;;;4.38;1.42;;;20.30;99.90;;;;;;4971521;28;20058;-71
2023/06/30 09:06:50;;;;;;;5.75;1.25;;;20.40;99.90;;;;;;4972490;28;20482;-71
2023/06/30 09:09:42;;;;;;;4.13;1.10;;;20.50;99.90;;;;;;4988491;28;20049;-71
2023/06/30 09:12:12;;;;;;;5.10;1.40;;;20.70;99.90;;;;;;4986340;28;20437;-71
2023/06/30 09:14:43;;;;;;;5.28;2.17;;;20.90;99.90;;;;;;4970268;28;20500;-72
2023/06/30 09:17:08;;;;;;;3.75;1.42;;;21.10;99.90;;;;;;5004234;28;20100;-71
2023/06/30 09:19:35;;;;;;;5.50;1.23;;;21.10;99.90;;;;;;4984298;28;20054;-72
2023/06/30 09:22:02;;;;;;;3.33;1.10;;;21.00;99.90;;;;;;4987694;28;20046;-71
2023/06/30 09:24:28;;;;;;;4.10;1.50;;;20.80;99.90;;;;;;4983469;28;20543;-72
2023/06/30 09:26:54;;;;;;;4.85;1.08;;;20.90;99.90;;;;;;4971313;28;20034;-71
2023/06/30 09:29:23;;;;;;;6.18;1.20;;;21.10;98.70;;;;;;4988239;28;20057;-71
2023/06/30 09:31:52;;;;;;;2.47;0.88;;;21.20;97.40;;;;;;4969270;28;20034;-72
2023/06/30 09:34:21;;;;;;;3.33;1.20;;;21.30;96.60;;;;;;4985832;28;20042;-71
2023/06/30 09:36:54;;;;;;;3.85;1.10;;;21.50;97.10;;;;;;4988363;28;20052;-71
2023/06/30 09:39:21;;;;;;;3.35;1.00;;;21.70;96.90;;;;;;4985531;28;20502;-71
2023/06/30 09:41:49;;;;;;;3.47;0.93;;;21.80;95.50;;;;;;4986558;28;20396;-71
2023/06/30 09:44:22;;;;;;;2.80;1.17;;;21.80;93.60;;;;;;4986604;28;20077;-71
2023/06/30 09:46:54;;;;;;;3.88;0.85;;;21.70;94.50;;;;;;4985920;28;20481;-72
2023/06/30 09:49:32;;;;;;;2.63;1.00;;;21.70;95.00;;;;;;4989185;28;20046;-72
2023/06/30 09:52:01;;;;;;;5.20;1.20;;;21.90;92.70;;;;;;4986179;28;20053;-75
2023/06/30 09:54:29;;;;;;;5.18;1.05;;;21.80;93.90;;;;;;4986751;28;20172;-75
2023/06/30 09:56:58;;;;;;;4.97;1.42;;;21.60;93.40;;;;;;4969649;28;20121;-75
2023/06/30 09:59:25;;;;;;;3.50;1.30;;;21.40;94.30;;;;;;4987948;28;20078;-75
2023/06/30 10:01:55;;;;;;;3.95;1.20;;;21.20;93.40;;;;;;4973953;28;20045;-76
2023/06/30 10:04:22;;;;;;;4.82;1.13;;;21.20;95.00;;;;;;4988753;28;20049;-75
2023/06/30 10:06:50;;;;;;;4.32;1.25;;;21.30;95.60;;;;;;4987440;28;20489;-75
2023/06/30 10:09:19;;;;;;;3.72;1.20;;;21.50;94.50;;;;;;4986406;28;20054;-75
2023/06/30 10:11:51;;;;;;;4.60;1.15;;;21.60;94.60;;;;;;4975060;28;20050;-75
2023/06/30 10:14:20;;;;;;;4.57;1.00;;;21.50;94.30;;;;;;4969391;28;20045;-76
2023/06/30 10:16:47;;;;;;;5.53;1.20;;;21.40;93.70;;;;;;4988050;28;20096;-72
2023/06/30 10:19:14;;;;;;;4.35;1.33;;;21.20;93.90;;;;;;4985213;28;20041;-72
2023/06/30 10:21:41;;;;;;;4.32;1.23;;;21.10;95.50;;;;;;5002935;28;20050;-72
2023/06/30 10:24:09;;;;;;;4.00;1.10;;;21.10;95.00;;;;;;4971923;28;20061;-72
2023/06/30 10:26:36;;;;;;;4.72;1.50;;;21.20;95.20;;;;;;4969259;28;20548;-72
2023/06/30 10:29:03;;;;;;;3.35;1.05;;;21.40;94.20;;;;;;4973833;28;20125;-72
2023/06/30 10:31:29;;;;;;;3.70;1.25;;;21.70;93.80;;;;;;4970254;28;20523;-72
2023/06/30 10:33:58;;;;;;;4.03;1.23;;;21.90;92.80;;;;;;4984331;28;20095;-72
2023/06/30 10:36:25;;;;;;;4.27;1.20;;;22.10;91.10;;;;;;4995063;28;20054;-72
2023/06/30 10:38:51;;;;;;;9.57;1.10;;;22.20;92.20;;;;;;4977231;28;20304;-72
2023/06/30 10:41:22;;;;;;;3.22;0.98;;;22.20;91.20;;;;;;4980920;28;20049;-72
2023/06/30 10:44:03;;;;;;;5.10;1.10;;;22.30;90.40;;;;;;4973582;28;20571;-72
2023/06/30 10:46:52;;;;;;;2.85;0.98;;;22.20;85.70;;;;;;4986439;28;20052;-75
2023/06/30 10:49:34;;;;;;;3.20;1.63;;;22.10;89.70;;;;;;4974949;28;20038;-75
2023/06/30 10:52:02;;;;;;;3.83;0.90;;;21.80;89.70;;;;;;4978048;28;20037;-76
2023/06/30 10:54:30;;;;;;;3.72;1.00;;;21.60;89.80;;;;;;4987272;28;20052;-75
2023/06/30 10:57:08;;;;;;;4.43;1.02;;;21.40;91.00;;;;;;4989535;28;20505;-75
2023/06/30 10:59:40;;;;;;;3.95;1.25;;;21.30;90.70;;;;;;4985341;28;20053;-72
2023/06/30 11:02:29;;;;;;;4.05;1.35;;;21.20;92.60;;;;;;4975054;28;20139;-72
2023/06/30 11:05:21;;;;;;;4.57;1.20;;;21.30;92.20;;;;;;4986934;28;20171;-71
2023/06/30 11:08:03;;;;;;;4.22;1.00;;;21.60;92.30;;;;;;4970171;28;20749;-72
2023/06/30 11:10:31;;;;;;;2.42;1.13;;;21.80;91.90;;;;;;4994257;28;20478;-72
2023/06/30 11:12:58;;;;;;;4.93;1.23;;;21.80;88.20;;;;;;4987194;28;20088;-72
2023/06/30 11:15:25;;;;;;;3.38;1.00;;;21.90;86.50;;;;;;4967863;28;20068;-72
2023/06/30 11:17:56;;;;;;;3.28;1.10;;;22.00;87.10;;;;;;4985771;28;20121;-71
2023/06/30 11:20:29;;;;;;;2.55;1.15;;;22.00;85.60;;;;;;4985330;28;20058;-72
2023/06/30 11:23:03;;;;;;;5.68;1.20;;;22.00;88.30;;;;;;4972052;28;20484;-72
2023/06/30 11:25:30;;;;;;;4.72;1.33;;;21.80;88.70;;;;;;4974761;28;20041;-71
2023/06/30 11:27:59;;;;;;;6.18;1.45;;;21.60;88.10;;;;;;4972046;28;20065;-72
2023/06/30 11:30:25;;;;;;;6.97;1.35;;;21.50;87.60;;;;;;4979813;28;20470;-72
2023/06/30 11:32:58;;;;;;;4.00;1.30;;;21.30;90.00;;;;;;4981871;28;20042;-72
2023/06/30 11:35:26;;;;;;;4.72;1.25;;;21.40;89.60;;;;;;4972333;28;20140;-71
2023/06/30 11:37:53;;;;;;;3.55;1.30;;;21.60;87.80;;;;;;4990436;28;20049;-71
2023/06/30 11:40:21;;;;;;;4.95;1.75;;;21.70;85.10;;;;;;4973801;28;20041;-71
2023/06/30 11:42:52;;;;;;;3.08;1.50;;;21.80;88.70;;;;;;4969923;28;20112;-71
2023/06/30 11:45:21;;;;;;;3.10;1.30;;;22.00;86.60;;;;;;4973664;28;20133;-71
2023/06/30 11:47:51;;;;;;;4.22;1.35;;;22.20;84.40;;;;;;4985202;28;20073;-71
2023/06/30 11:50:18;;;;;;;2.78;1.50;;;22.30;87.10;;;;;;4993910;28;20053;-75
2023/06/30 11:52:46;;;;;;;4.40;1.65;;;22.20;86.70;;;;;;4974946;28;20056;-74
2023/06/30 11:55:12;;;;;;;3.88;1.40;;;22.10;87.90;;;;;;4976206;28;20061;-74
2023/06/30 11:57:40;;;;;;;2.65;1.40;;;22.10;88.20;;;;;;4986152;28;20064;-75
2023/06/30 12:00:16;;;;;;;5.53;1.65;;;22.20;86.20;;;;;;4973912;28;20054;-71
2023/06/30 12:02:45;;;;;;;3.67;1.20;;;22.30;85.70;;;;;;4970205;28;20062;-71
2023/06/30 12:05:23;;;;;;;7.00;1.80;;;22.60;86.10;;;;;;4992327;28;20060;-70
2023/06/30 12:07:51;;;;;;;4.32;1.45;;;22.90;80.80;;;;;;4980843;28;20440;-71
2023/06/30 12:10:17;;;;;;;4.57;1.65;;;23.20;82.10;;;;;;4991684;28;20045;-71
2023/06/30 12:12:43;;;;;;;4.07;1.48;;;23.30;77.10;;;;;;4992717;28;20479;-71
2023/06/30 12:15:11;;;;;;;4.65;1.63;;;23.30;75.70;;;;;;4978331;28;20045;-71
2023/06/30 12:17:40;;;;;;;3.83;1.30;;;23.40;77.00;;;;;;4992217;28;20068;-71
2023/06/30 12:20:07;;;;;;;4.63;1.15;;;23.60;77.70;;;;;;4989111;28;20447;-71
2023/06/30 12:22:44;;;;;;;4.20;1.17;;;23.70;74.60;;;;;;4984984;28;20200;-71
2023/06/30 12:25:11;;;;;;;2.88;1.05;;;23.80;72.90;;;;;;4986291;28;20049;-72
2023/06/30 12:27:44;;;;;;;5.43;1.40;;;23.90;76.50;;;;;;4979609;28;20046;-70
2023/06/30 12:30:19;;;;;;;3.30;1.38;;;23.70;71.10;;;;;;4989973;28;20124;-71
2023/06/30 12:32:46;;;;;;;3.28;1.40;;;23.40;73.50;;;;;;4988607;28;20480;-71
2023/06/30 12:35:12;;;;;;;3.50;1.30;;;23.20;76.30;;;;;;4970594;28;20048;-71
2023/06/30 12:37:39;;;;;;;5.15;1.48;;;23.00;78.10;;;;;;4986245;28;20047;-72
2023/06/30 12:40:08;;;;;;;4.35;1.50;;;22.90;77.90;;;;;;4987549;28;20050;-71
2023/06/30 12:42:34;;;;;;;4.38;1.30;;;22.80;78.60;;;;;;4987819;28;20041;-74
2023/06/30 12:45:00;;;;;;;3.17;1.33;;;22.80;82.60;;;;;;4966623;28;20042;-73